createdAt,value
2017-09-19T00:01:33.025Z,71.20
2017-09-19T00:04:00.617Z,56.13
2017-09-19T00:06:28.195Z,66.93
2017-09-19T00:08:55.759Z,57.13
2017-09-19T00:11:23.323Z,60.43
2017-09-19T00:13:50.899Z,61.63
2017-09-19T00:16:18.510Z,58.33
2017-09-19T00:18:46.096Z,58.47
2017-09-19T00:21:13.711Z,58.40
2017-09-19T00:23:42.069Z,58.03
2017-09-19T00:26:09.609Z,71.33
2017-09-19T00:28:37.253Z,61.57
2017-09-19T00:31:04.853Z,62.87
2017-09-19T00:33:32.469Z,55.27
2017-09-19T00:36:00.792Z,63.57
2017-09-19T00:38:28.422Z,63.63
2017-09-19T00:40:56.092Z,72.77
2017-09-19T00:43:23.673Z,60.90
2017-09-19T00:45:51.274Z,58.67
2017-09-19T00:48:18.838Z,63.40
2017-09-19T00:50:46.453Z,61.13
2017-09-19T00:53:14.024Z,59.40
2017-09-19T00:55:41.612Z,60.80
2017-09-19T00:58:09.198Z,63.70
2017-09-19T01:00:36.785Z,63.17
2017-09-19T01:03:05.114Z,63.87
2017-09-19T01:05:32.672Z,69.00
2017-09-19T01:08:00.252Z,60.60
2017-09-19T01:10:27.812Z,64.37
2017-09-19T01:12:55.398Z,71.13
2017-09-19T01:15:22.975Z,65.70
2017-09-19T01:17:50.597Z,60.07
2017-09-19T01:20:18.215Z,64.80
2017-09-19T01:22:46.543Z,68.17
2017-09-19T01:25:14.107Z,70.50
2017-09-19T01:27:41.713Z,66.67
2017-09-19T01:30:09.367Z,68.00
2017-09-19T01:32:37.727Z,74.40
2017-09-19T01:35:05.302Z,69.03
2017-09-19T01:37:32.926Z,67.43
2017-09-19T01:40:00.583Z,76.20
2017-09-19T01:42:28.961Z,64.50
2017-09-19T01:44:57.307Z,64.03
2017-09-19T01:47:24.937Z,63.83
2017-09-19T01:49:52.493Z,67.87
2017-09-19T01:52:20.144Z,64.27
2017-09-19T01:54:47.757Z,62.73
2017-09-19T01:57:15.302Z,63.50
2017-09-19T01:59:42.883Z,60.93
2017-09-19T02:02:10.477Z,70.93
2017-09-19T02:04:38.852Z,60.43
2017-09-19T02:07:07.195Z,67.13
2017-09-19T02:09:34.765Z,67.37
2017-09-19T02:12:02.359Z,64.67
2017-09-19T02:14:29.935Z,64.57
2017-09-19T02:16:58.313Z,68.00
2017-09-19T02:19:25.898Z,71.47
2017-09-19T02:21:54.280Z,65.43
2017-09-19T02:24:22.631Z,61.87
2017-09-19T02:26:50.237Z,61.47
2017-09-19T02:29:17.817Z,59.20
2017-09-19T02:31:45.393Z,60.87
2017-09-19T02:34:13.009Z,53.90
2017-09-19T02:36:41.369Z,61.60
2017-09-19T02:39:08.988Z,62.47
2017-09-19T02:41:36.549Z,63.30
2017-09-19T02:44:04.155Z,62.43
2017-09-19T02:46:31.751Z,64.30
2017-09-19T02:49:00.099Z,76.27
2017-09-19T02:51:27.699Z,72.83
2017-09-19T02:53:56.044Z,62.67
2017-09-19T02:56:23.649Z,66.23
2017-09-19T02:58:51.217Z,65.73
2017-09-19T03:01:19.555Z,72.60
2017-09-19T03:03:47.147Z,64.20
2017-09-19T03:06:15.518Z,68.30
2017-09-19T03:08:44.685Z,69.90
2017-09-19T03:11:12.278Z,61.60
2017-09-19T03:13:39.855Z,60.97
2017-09-19T03:16:07.441Z,67.63
2017-09-19T03:18:35.030Z,66.20
2017-09-19T03:21:02.620Z,67.70
2017-09-19T03:23:30.194Z,60.27
2017-09-19T03:25:57.805Z,59.07
2017-09-19T03:28:25.438Z,60.47
2017-09-19T03:30:53.769Z,63.63
2017-09-19T03:33:21.379Z,72.40
2017-09-19T03:35:48.945Z,61.93
2017-09-19T03:38:17.290Z,65.47
2017-09-19T03:40:44.886Z,64.33
2017-09-19T03:43:12.460Z,59.73
2017-09-19T03:45:40.816Z,60.00
2017-09-19T03:48:08.407Z,64.87
2017-09-19T03:50:36.794Z,60.73
2017-09-19T03:53:05.328Z,64.10
2017-09-19T03:55:32.889Z,67.27
2017-09-19T03:58:00.505Z,71.10
2017-09-19T04:00:28.843Z,69.43
2017-09-19T04:02:56.432Z,72.67
2017-09-19T04:05:24.013Z,66.90
2017-09-19T04:07:51.587Z,67.30
2017-09-19T04:10:19.959Z,67.70
2017-09-19T04:12:48.305Z,69.60
2017-09-19T04:15:15.967Z,72.77
2017-09-19T04:17:43.549Z,67.30
2017-09-19T04:20:11.138Z,64.40
2017-09-19T04:22:39.514Z,70.47
2017-09-19T04:25:07.217Z,70.30
2017-09-19T04:27:34.805Z,69.13
2017-09-19T04:30:02.396Z,71.03
2017-09-19T04:32:30.068Z,86.37
2017-09-19T04:34:57.705Z,73.03
2017-09-19T04:37:25.290Z,70.27
2017-09-19T04:39:52.876Z,77.47
2017-09-19T04:42:21.303Z,71.33
2017-09-19T04:44:48.915Z,85.40
2017-09-19T04:47:16.528Z,75.37
2017-09-19T04:49:44.102Z,71.97
2017-09-19T04:52:11.693Z,80.07
2017-09-19T04:54:39.291Z,80.17
2017-09-19T04:57:06.915Z,78.90
2017-09-19T04:59:34.520Z,79.80
2017-09-19T05:02:02.943Z,84.27
2017-09-19T05:04:30.616Z,81.53
2017-09-19T05:06:58.249Z,78.63
2017-09-19T05:09:25.833Z,84.73
2017-09-19T05:11:53.479Z,76.73
2017-09-19T05:14:21.846Z,76.83
2017-09-19T05:16:50.214Z,76.33
2017-09-19T05:19:18.604Z,72.87
2017-09-19T05:21:46.928Z,81.70
2017-09-19T05:24:14.527Z,81.40
2017-09-19T05:26:42.128Z,84.60
2017-09-19T05:29:10.521Z,81.50
2017-09-19T05:31:38.151Z,80.93
2017-09-19T05:34:06.486Z,84.57
2017-09-19T05:36:34.093Z,84.20
2017-09-19T05:39:02.410Z,85.93
2017-09-19T05:41:30.029Z,92.97
2017-09-19T05:43:57.610Z,87.73
2017-09-19T05:46:25.961Z,84.03
2017-09-19T05:48:53.531Z,77.37
2017-09-19T05:51:21.182Z,91.43
2017-09-19T05:53:48.755Z,80.83
2017-09-19T05:56:16.339Z,75.13
2017-09-19T05:58:44.025Z,83.00
2017-09-19T06:01:12.571Z,76.50
2017-09-19T06:03:40.168Z,80.40
2017-09-19T06:06:08.754Z,76.93
2017-09-19T06:08:48.248Z,78.27
2017-09-19T06:11:15.835Z,82.80
2017-09-19T06:13:43.411Z,77.73
2017-09-19T06:16:10.993Z,79.67
2017-09-19T06:18:39.388Z,81.37
2017-09-19T06:21:07.763Z,78.00
2017-09-19T06:23:36.127Z,81.47
2017-09-19T06:26:03.732Z,77.03
2017-09-19T06:28:31.341Z,78.73
2017-09-19T06:30:58.915Z,73.93
2017-09-19T06:33:26.527Z,84.27
2017-09-19T06:35:54.108Z,91.00
2017-09-19T06:38:21.699Z,80.63
2017-09-19T06:40:49.298Z,73.33
2017-09-19T06:43:17.642Z,78.10
2017-09-19T06:45:45.225Z,82.67
2017-09-19T06:48:12.821Z,73.37
2017-09-19T06:50:40.449Z,83.97
2017-09-19T06:53:08.027Z,72.67
2017-09-19T06:55:36.385Z,70.20
2017-09-19T06:58:03.983Z,80.03
2017-09-19T07:00:32.340Z,84.90
2017-09-19T07:03:00.740Z,82.23
2017-09-19T07:05:29.102Z,74.90
2017-09-19T07:07:57.463Z,85.33
2017-09-19T07:10:25.066Z,80.30
2017-09-19T07:12:53.406Z,89.67
2017-09-19T07:15:21.010Z,78.23
2017-09-19T07:17:50.628Z,70.40
2017-09-19T07:20:19.044Z,75.37
2017-09-19T07:22:46.641Z,68.23
2017-09-19T07:25:14.233Z,84.83
2017-09-19T07:27:42.595Z,82.90
2017-09-19T07:30:10.208Z,81.37
2017-09-19T07:32:37.820Z,72.20
2017-09-19T07:35:05.381Z,82.07
2017-09-19T07:37:32.978Z,87.17
2017-09-19T07:40:01.350Z,78.77
2017-09-19T07:42:28.969Z,81.13
2017-09-19T07:44:56.545Z,75.40
2017-09-19T07:47:24.128Z,77.70
2017-09-19T07:49:51.736Z,77.13
2017-09-19T07:52:19.368Z,71.50
2017-09-19T07:54:46.943Z,76.53
2017-09-19T07:57:15.269Z,69.97
2017-09-19T07:59:42.941Z,77.30
2017-09-19T08:02:10.551Z,64.33
2017-09-19T08:04:38.891Z,71.43
2017-09-19T08:07:06.481Z,65.73
2017-09-19T08:09:34.845Z,58.83
2017-09-19T08:12:02.432Z,59.37
2017-09-19T08:14:30.160Z,57.60
2017-09-19T08:16:57.724Z,61.00
2017-09-19T08:19:25.321Z,51.57
2017-09-19T08:21:53.368Z,54.90
2017-09-19T08:24:21.030Z,57.50
2017-09-19T08:26:48.609Z,59.40
2017-09-19T08:29:16.183Z,56.60
2017-09-19T08:31:44.553Z,62.37
2017-09-19T08:34:12.112Z,52.03
2017-09-19T08:36:39.705Z,54.97
2017-09-19T08:39:07.293Z,54.40
2017-09-19T08:41:35.612Z,54.40
2017-09-19T08:44:03.195Z,55.43
2017-09-19T08:46:30.841Z,54.70
2017-09-19T08:48:58.444Z,62.27
2017-09-19T08:51:26.765Z,60.00
2017-09-19T08:53:54.378Z,56.93
2017-09-19T08:56:22.093Z,51.93
2017-09-19T08:58:49.682Z,56.63
2017-09-19T09:01:17.285Z,50.63
2017-09-19T09:03:45.661Z,55.53
2017-09-19T09:06:13.277Z,53.10
2017-09-19T09:08:40.860Z,59.50
2017-09-19T09:11:08.453Z,55.43
2017-09-19T09:13:36.070Z,58.60
2017-09-19T09:16:03.660Z,58.27
2017-09-19T09:18:31.280Z,62.43
2017-09-19T09:20:59.641Z,61.17
2017-09-19T09:23:28.762Z,64.63
2017-09-19T09:25:57.181Z,58.67
2017-09-19T09:28:24.824Z,67.13
2017-09-19T09:30:52.515Z,59.93
2017-09-19T09:33:20.087Z,57.27
2017-09-19T09:35:47.705Z,61.20
2017-09-19T09:38:16.122Z,57.83
2017-09-19T09:40:43.703Z,56.43
2017-09-19T09:43:11.308Z,59.37
2017-09-19T09:45:39.650Z,61.80
2017-09-19T09:48:07.261Z,60.37
2017-09-19T09:50:35.610Z,52.93
2017-09-19T09:53:03.200Z,53.13
2017-09-19T09:55:30.775Z,48.57
2017-09-19T09:57:59.144Z,45.97
2017-09-19T10:00:27.486Z,52.60
2017-09-19T10:02:55.139Z,49.27
2017-09-19T10:05:22.738Z,53.27
2017-09-19T10:07:50.367Z,49.80
2017-09-19T10:10:17.964Z,49.93
2017-09-19T10:12:45.521Z,52.77
2017-09-19T10:15:13.138Z,56.73
2017-09-19T10:17:40.735Z,53.50
2017-09-19T10:20:08.307Z,52.23
2017-09-19T10:22:35.903Z,49.63
2017-09-19T10:25:04.243Z,53.40
2017-09-19T10:27:31.831Z,55.60
2017-09-19T10:29:59.411Z,49.80
2017-09-19T10:32:27.522Z,48.47
2017-09-19T10:34:55.210Z,50.20
2017-09-19T10:37:22.788Z,49.63
2017-09-19T10:39:50.418Z,51.07
2017-09-19T10:42:17.996Z,48.07
2017-09-19T10:44:45.610Z,41.37
2017-09-19T10:47:13.209Z,39.70
2017-09-19T10:49:40.833Z,46.87
2017-09-19T10:52:08.425Z,42.27
2017-09-19T10:54:36.786Z,38.13
2017-09-19T10:57:04.360Z,34.27
2017-09-19T10:59:32.721Z,35.40
2017-09-19T11:02:00.328Z,32.87
2017-09-19T11:04:27.902Z,37.00
2017-09-19T11:06:55.521Z,35.10
2017-09-19T11:09:23.868Z,32.90
2017-09-19T11:11:51.455Z,31.77
2017-09-19T11:14:19.069Z,34.33
2017-09-19T11:16:46.652Z,30.80
2017-09-19T11:19:14.336Z,31.33
2017-09-19T11:21:41.993Z,32.07
2017-09-19T11:24:09.604Z,29.57
2017-09-19T11:26:37.951Z,30.30
2017-09-19T11:29:05.528Z,29.40
2017-09-19T11:31:33.133Z,35.80
2017-09-19T11:34:01.479Z,31.20
2017-09-19T11:36:29.846Z,34.13
2017-09-19T11:38:57.447Z,35.17
2017-09-19T11:41:25.874Z,30.10
2017-09-19T11:43:53.454Z,32.60
2017-09-19T11:46:21.061Z,34.37
2017-09-19T11:48:49.415Z,33.97
2017-09-19T11:51:17.017Z,36.70
2017-09-19T11:53:45.346Z,31.83
2017-09-19T11:56:12.955Z,36.60
2017-09-19T11:58:41.303Z,37.67
2017-09-19T12:01:08.897Z,29.13
2017-09-19T12:03:37.281Z,27.93
2017-09-19T12:06:05.628Z,28.60
2017-09-19T12:08:33.227Z,26.30
2017-09-19T12:11:01.552Z,26.47
2017-09-19T12:13:29.197Z,25.63
2017-09-19T12:15:56.818Z,28.53
2017-09-19T12:18:24.433Z,24.10
2017-09-19T12:20:52.007Z,30.33
2017-09-19T12:23:19.639Z,18.57
2017-09-19T12:25:47.980Z,14.77
2017-09-19T12:28:15.552Z,13.60
2017-09-19T12:30:43.144Z,13.63
2017-09-19T12:33:11.499Z,14.63
2017-09-19T12:35:39.128Z,13.57
2017-09-19T12:38:06.721Z,17.53
2017-09-19T12:40:34.295Z,16.87
2017-09-19T12:43:03.391Z,16.53
2017-09-19T12:45:30.967Z,15.77
2017-09-19T12:47:59.340Z,15.43
2017-09-19T12:50:26.933Z,14.10
2017-09-19T12:52:55.486Z,17.20
2017-09-19T12:55:23.069Z,17.13
2017-09-19T12:57:50.674Z,19.03
2017-09-19T13:00:18.282Z,17.00
2017-09-19T13:02:45.931Z,19.03
2017-09-19T13:05:13.545Z,16.50
2017-09-19T13:07:41.900Z,14.63
2017-09-19T13:10:09.543Z,16.70
2017-09-19T13:12:37.137Z,17.20
2017-09-19T13:15:05.513Z,16.23
2017-09-19T13:17:33.142Z,16.60
2017-09-19T13:20:00.729Z,18.63
2017-09-19T13:22:28.326Z,19.97
2017-09-19T13:24:56.703Z,17.70
2017-09-19T13:27:24.289Z,17.10
2017-09-19T13:29:51.905Z,11.40
2017-09-19T13:32:31.399Z,16.70
2017-09-19T13:34:59.027Z,16.27
2017-09-19T13:37:27.369Z,14.63
2017-09-19T13:39:55.027Z,13.57
2017-09-19T13:42:22.631Z,16.70
2017-09-19T13:44:51.719Z,15.80
2017-09-19T13:47:19.324Z,15.57
2017-09-19T13:49:46.903Z,15.93
2017-09-19T13:52:14.487Z,17.60
2017-09-19T13:54:42.087Z,17.53
2017-09-19T13:57:11.359Z,19.83
2017-09-19T13:59:38.965Z,17.97
2017-09-19T14:02:06.571Z,19.27
2017-09-19T14:04:34.144Z,21.10
2017-09-19T14:07:01.759Z,25.83
2017-09-19T14:09:29.321Z,18.20
2017-09-19T14:11:56.985Z,19.70
2017-09-19T14:14:25.336Z,21.37
2017-09-19T14:16:53.341Z,19.43
2017-09-19T14:19:20.943Z,24.30
2017-09-19T14:21:48.523Z,22.43
2017-09-19T14:24:16.194Z,25.60
2017-09-19T14:26:43.771Z,22.43
2017-09-19T14:29:11.373Z,21.73
2017-09-19T14:31:39.753Z,24.93
2017-09-19T14:34:08.088Z,21.30
2017-09-19T14:36:35.700Z,22.67
2017-09-19T14:39:04.117Z,23.30
2017-09-19T14:41:31.727Z,21.37
2017-09-19T14:43:59.342Z,23.53
2017-09-19T14:46:26.909Z,22.77
2017-09-19T14:48:54.582Z,22.40
2017-09-19T14:51:22.163Z,23.70
2017-09-19T14:53:49.739Z,22.73
2017-09-19T14:56:17.343Z,24.90
2017-09-19T14:58:45.764Z,22.70
2017-09-19T15:01:13.344Z,21.40
2017-09-19T15:03:41.752Z,24.73
2017-09-19T15:06:09.362Z,21.60
2017-09-19T15:08:36.974Z,22.50
2017-09-19T15:11:04.619Z,21.20
2017-09-19T15:13:32.180Z,22.13
2017-09-19T15:15:59.801Z,22.83
2017-09-19T15:18:28.165Z,22.87
2017-09-19T15:20:55.743Z,21.47
2017-09-19T15:23:24.167Z,23.10
2017-09-19T15:25:51.834Z,24.57
2017-09-19T15:28:19.396Z,28.43
2017-09-19T15:30:46.967Z,23.43
2017-09-19T15:33:14.588Z,18.90
2017-09-19T15:35:42.948Z,21.30
2017-09-19T15:38:10.547Z,24.27
2017-09-19T15:40:38.122Z,23.70
2017-09-19T15:43:05.769Z,23.97
2017-09-19T15:45:34.155Z,25.57
2017-09-19T15:48:01.752Z,19.97
2017-09-19T15:50:29.351Z,20.17
2017-09-19T15:52:56.957Z,24.07
2017-09-19T15:55:24.592Z,21.47
2017-09-19T15:57:52.191Z,21.73
2017-09-19T16:00:19.771Z,21.50
2017-09-19T16:02:47.363Z,20.43
2017-09-19T16:05:14.996Z,23.33
2017-09-19T16:07:42.579Z,21.20
2017-09-19T16:10:10.189Z,22.20
2017-09-19T16:12:38.555Z,18.93
2017-09-19T16:15:06.132Z,21.43
2017-09-19T16:17:34.509Z,21.27
2017-09-19T16:20:02.940Z,21.87
2017-09-19T16:22:30.543Z,19.07
2017-09-19T16:24:58.134Z,24.77
2017-09-19T16:27:26.475Z,20.20
2017-09-19T16:29:54.069Z,19.33
2017-09-19T16:32:22.458Z,22.27
2017-09-19T16:34:50.804Z,24.27
2017-09-19T16:37:18.375Z,25.47
2017-09-19T16:39:45.976Z,26.43
2017-09-19T16:42:14.321Z,20.00
2017-09-19T16:44:41.911Z,26.73
2017-09-19T16:47:10.336Z,29.93
2017-09-19T16:49:37.945Z,24.03
2017-09-19T16:52:05.512Z,24.30
2017-09-19T16:54:33.101Z,21.17
2017-09-19T16:57:00.684Z,22.67
2017-09-19T16:59:28.245Z,21.50
2017-09-19T17:01:56.215Z,21.90
2017-09-19T17:04:23.809Z,22.27
2017-09-19T17:06:51.461Z,22.07
2017-09-19T17:09:19.126Z,21.67
2017-09-19T17:11:46.703Z,22.53
2017-09-19T17:14:14.293Z,23.13
2017-09-19T17:16:42.701Z,24.23
2017-09-19T17:19:12.167Z,24.73
2017-09-19T17:21:39.852Z,22.10
2017-09-19T17:24:07.428Z,22.10
2017-09-19T17:26:35.813Z,28.20
2017-09-19T17:29:04.174Z,22.97
2017-09-19T17:31:31.817Z,22.73
2017-09-19T17:33:59.432Z,28.07
2017-09-19T17:36:27.044Z,25.80
2017-09-19T17:38:54.630Z,24.90
2017-09-19T17:41:22.243Z,25.17
2017-09-19T17:43:49.851Z,27.93
2017-09-19T17:46:17.455Z,26.67
2017-09-19T17:48:45.826Z,26.83
2017-09-19T17:51:13.425Z,29.50
2017-09-19T17:53:41.113Z,30.10
2017-09-19T17:56:08.698Z,32.00
2017-09-19T17:58:36.301Z,31.77
2017-09-19T18:01:03.928Z,36.13
2017-09-19T18:03:31.591Z,30.70
2017-09-19T18:05:59.217Z,28.73
2017-09-19T18:08:26.798Z,30.87
2017-09-19T18:10:54.392Z,31.43
2017-09-19T18:13:22.783Z,28.77
2017-09-19T18:15:50.384Z,34.20
2017-09-19T18:18:17.979Z,32.50
2017-09-19T18:20:45.561Z,31.97
2017-09-19T18:23:14.067Z,31.70
2017-09-19T18:25:41.899Z,33.07
2017-09-19T18:28:09.517Z,30.67
2017-09-19T18:30:37.873Z,32.20
2017-09-19T18:33:05.436Z,29.77
2017-09-19T18:35:33.629Z,34.47
2017-09-19T18:38:01.993Z,31.20
2017-09-19T18:40:29.608Z,31.93
2017-09-19T18:42:57.401Z,36.17
2017-09-19T18:45:25.059Z,32.47
2017-09-19T18:47:52.687Z,30.67
2017-09-19T18:50:21.106Z,36.17
2017-09-19T18:52:48.726Z,36.30
2017-09-19T18:55:17.262Z,31.07
2017-09-19T18:57:44.852Z,34.90
2017-09-19T19:00:13.149Z,35.20
2017-09-19T19:02:40.754Z,32.13
2017-09-19T19:05:08.363Z,32.13
2017-09-19T19:07:35.964Z,31.40
2017-09-19T19:10:04.323Z,32.30
2017-09-19T19:12:31.946Z,33.00
2017-09-19T19:14:59.542Z,29.27
2017-09-19T19:17:27.168Z,30.20
2017-09-19T19:19:54.744Z,30.73
2017-09-19T19:22:22.344Z,32.63
2017-09-19T19:24:50.072Z,33.37
2017-09-19T19:27:17.839Z,34.67
2017-09-19T19:29:45.432Z,37.23
2017-09-19T19:32:13.022Z,31.77
2017-09-19T19:34:41.401Z,33.70
2017-09-19T19:37:09.222Z,33.70
2017-09-19T19:39:36.828Z,33.97
2017-09-19T19:42:04.555Z,39.50
2017-09-19T19:44:32.150Z,37.47
2017-09-19T19:47:00.557Z,33.63
2017-09-19T19:49:28.936Z,37.60
2017-09-19T19:51:57.324Z,35.27
2017-09-19T19:54:25.710Z,32.10
2017-09-19T19:56:54.059Z,36.60
2017-09-19T19:59:21.798Z,36.37
2017-09-19T20:01:49.444Z,36.33
2017-09-19T20:04:17.032Z,35.10
2017-09-19T20:06:44.820Z,42.20
2017-09-19T20:09:12.415Z,36.40
2017-09-19T20:11:40.769Z,39.23
2017-09-19T20:14:08.403Z,37.67
2017-09-19T20:16:35.997Z,32.37
2017-09-19T20:19:03.613Z,40.70
2017-09-19T20:21:31.305Z,37.10
2017-09-19T20:23:58.927Z,35.97
2017-09-19T20:26:27.280Z,38.17
2017-09-19T20:28:54.891Z,38.10
2017-09-19T20:31:22.465Z,38.73
2017-09-19T20:33:50.073Z,41.13
2017-09-19T20:36:17.637Z,37.90
2017-09-19T20:38:45.365Z,39.80
2017-09-19T20:41:12.930Z,40.97
2017-09-19T20:43:40.575Z,39.17
2017-09-19T20:46:08.195Z,41.07
2017-09-19T20:48:35.776Z,46.40
2017-09-19T20:51:03.379Z,43.60
2017-09-19T20:53:30.969Z,42.93
2017-09-19T20:55:58.576Z,41.73
2017-09-19T20:58:26.192Z,41.13
2017-09-19T21:00:53.781Z,42.80
2017-09-19T21:03:27.111Z,36.30
2017-09-19T21:06:01.256Z,44.03
2017-09-19T21:08:34.416Z,47.93
2017-09-19T21:11:08.443Z,41.23
2017-09-19T21:13:41.765Z,43.43
2017-09-19T21:16:15.090Z,41.63
2017-09-19T21:18:48.447Z,38.13
2017-09-19T21:21:16.009Z,37.03
2017-09-19T21:23:43.615Z,37.63
2017-09-19T21:26:11.227Z,38.87
2017-09-19T21:28:38.837Z,36.30
2017-09-19T21:31:06.429Z,38.37
2017-09-19T21:33:34.883Z,36.20
2017-09-19T21:36:03.296Z,38.43
2017-09-19T21:38:31.635Z,35.00
2017-09-19T21:40:59.240Z,37.60
2017-09-19T21:43:27.597Z,39.53
2017-09-19T21:45:55.184Z,37.00
2017-09-19T21:48:23.549Z,41.57
2017-09-19T21:50:51.137Z,35.27
2017-09-19T21:53:19.492Z,34.70
2017-09-19T21:55:47.111Z,44.33
2017-09-19T21:58:14.796Z,39.67
2017-09-19T22:00:42.403Z,38.50
2017-09-19T22:03:10.765Z,37.07
2017-09-19T22:05:38.379Z,41.13
2017-09-19T22:08:07.751Z,41.87
2017-09-19T22:10:35.353Z,41.33
2017-09-19T22:13:02.972Z,39.67
2017-09-19T22:15:30.555Z,42.87
2017-09-19T22:17:59.883Z,46.13
2017-09-19T22:20:27.487Z,42.43
2017-09-19T22:22:55.112Z,39.33
2017-09-19T22:25:22.751Z,47.20
2017-09-19T22:27:51.085Z,43.60
2017-09-19T22:30:19.869Z,42.33
2017-09-19T22:32:47.449Z,36.00
2017-09-19T22:35:15.049Z,40.07
2017-09-19T22:37:42.648Z,36.47
2017-09-19T22:40:10.237Z,39.93
2017-09-19T22:42:38.005Z,37.30
2017-09-19T22:45:05.598Z,41.47
2017-09-19T22:47:33.198Z,35.67
2017-09-19T22:50:01.538Z,41.10
2017-09-19T22:52:29.142Z,38.27
2017-09-19T22:54:57.526Z,39.50
2017-09-19T22:57:25.114Z,36.60
2017-09-19T22:59:52.733Z,33.93
2017-09-19T23:02:21.079Z,37.23
2017-09-19T23:04:48.722Z,38.40
2017-09-19T23:07:16.341Z,35.00
2017-09-19T23:09:43.937Z,37.33
2017-09-19T23:12:11.548Z,38.03
2017-09-19T23:14:39.128Z,48.60
2017-09-19T23:17:06.704Z,42.47
2017-09-19T23:19:34.305Z,43.73
2017-09-19T23:22:01.879Z,41.00
2017-09-19T23:24:29.483Z,38.23
2017-09-19T23:26:57.839Z,42.43
2017-09-19T23:29:25.433Z,36.80
2017-09-19T23:31:53.071Z,39.60
2017-09-19T23:34:20.695Z,38.07
2017-09-19T23:36:49.063Z,43.17
2017-09-19T23:39:17.400Z,40.67
2017-09-19T23:41:44.960Z,41.40
2017-09-19T23:44:12.620Z,42.87
2017-09-19T23:46:40.229Z,44.80
2017-09-19T23:49:07.869Z,46.27
2017-09-19T23:51:35.443Z,40.60
2017-09-19T23:54:03.105Z,46.00
2017-09-19T23:56:30.854Z,44.37
2017-09-19T23:58:58.437Z,47.60
